sensor_id;sensor_type;location;lat;lon;timestamp;temperature;humidity
46139;DHT22;32398;49.112;8.598;2022-08-21T00:01:58;22.80;53.70
46139;DHT22;32398;49.112;8.598;2022-08-21T00:04:24;22.80;53.80
46139;DHT22;32398;49.112;8.598;2022-08-21T00:06:51;22.70;53.80
46139;DHT22;32398;49.112;8.598;2022-08-21T00:09:19;22.70;53.90
46139;DHT22;32398;49.112;8.598;2022-08-21T00:11:46;22.70;54.00
46139;DHT22;32398;49.112;8.598;2022-08-21T00:14:13;22.70;53.90
46139;DHT22;32398;49.112;8.598;2022-08-21T00:16:40;22.60;54.00
46139;DHT22;32398;49.112;8.598;2022-08-21T00:19:07;22.60;54.20
46139;DHT22;32398;49.112;8.598;2022-08-21T00:21:33;22.50;54.30
46139;DHT22;32398;49.112;8.598;2022-08-21T00:24:00;22.50;54.40
46139;DHT22;32398;49.112;8.598;2022-08-21T00:26:28;22.50;54.30
46139;DHT22;32398;49.112;8.598;2022-08-21T00:28:55;22.40;54.40
46139;DHT22;32398;49.112;8.598;2022-08-21T00:31:21;22.40;54.50
46139;DHT22;32398;49.112;8.598;2022-08-21T00:33:48;22.40;54.60
46139;DHT22;32398;49.112;8.598;2022-08-21T00:36:15;22.30;54.70
46139;DHT22;32398;49.112;8.598;2022-08-21T00:38:41;22.30;54.80
46139;DHT22;32398;49.112;8.598;2022-08-21T00:41:09;22.30;54.80
46139;DHT22;32398;49.112;8.598;2022-08-21T00:43:37;22.30;54.80
46139;DHT22;32398;49.112;8.598;2022-08-21T00:46:05;22.20;54.90
46139;DHT22;32398;49.112;8.598;2022-08-21T00:48:32;22.20;54.90
46139;DHT22;32398;49.112;8.598;2022-08-21T00:51:00;22.20;55.00
46139;DHT22;32398;49.112;8.598;2022-08-21T00:53:27;22.20;55.10
46139;DHT22;32398;49.112;8.598;2022-08-21T00:55:55;22.10;55.10
46139;DHT22;32398;49.112;8.598;2022-08-21T00:58:23;22.10;55.20
46139;DHT22;32398;49.112;8.598;2022-08-21T01:00:51;22.00;55.20
46139;DHT22;32398;49.112;8.598;2022-08-21T01:03:19;22.00;55.30
46139;DHT22;32398;49.112;8.598;2022-08-21T01:05:46;22.00;55.30
46139;DHT22;32398;49.112;8.598;2022-08-21T01:08:13;22.00;55.40
46139;DHT22;32398;49.112;8.598;2022-08-21T01:10:41;21.90;55.40
46139;DHT22;32398;49.112;8.598;2022-08-21T01:13:09;21.90;55.50
46139;DHT22;32398;49.112;8.598;2022-08-21T01:15:38;21.90;55.60
46139;DHT22;32398;49.112;8.598;2022-08-21T01:18:08;21.90;55.80
46139;DHT22;32398;49.112;8.598;2022-08-21T01:20:35;21.80;55.80
46139;DHT22;32398;49.112;8.598;2022-08-21T01:23:03;21.80;55.80
46139;DHT22;32398;49.112;8.598;2022-08-21T01:25:30;21.80;55.90
46139;DHT22;32398;49.112;8.598;2022-08-21T01:27:58;21.70;56.00
46139;DHT22;32398;49.112;8.598;2022-08-21T01:30:27;21.70;56.00
46139;DHT22;32398;49.112;8.598;2022-08-21T01:32:53;21.70;55.90
46139;DHT22;32398;49.112;8.598;2022-08-21T01:35:21;21.70;56.00
46139;DHT22;32398;49.112;8.598;2022-08-21T01:37:48;21.60;56.00
46139;DHT22;32398;49.112;8.598;2022-08-21T01:40:16;21.60;56.20
46139;DHT22;32398;49.112;8.598;2022-08-21T01:42:43;21.60;56.10
46139;DHT22;32398;49.112;8.598;2022-08-21T01:45:09;21.60;56.20
46139;DHT22;32398;49.112;8.598;2022-08-21T01:47:36;21.50;56.20
46139;DHT22;32398;49.112;8.598;2022-08-21T01:50:03;21.50;56.40
46139;DHT22;32398;49.112;8.598;2022-08-21T01:52:30;21.50;56.50
46139;DHT22;32398;49.112;8.598;2022-08-21T01:54:57;21.40;56.50
46139;DHT22;32398;49.112;8.598;2022-08-21T01:57:24;21.50;56.60
46139;DHT22;32398;49.112;8.598;2022-08-21T01:59:51;21.50;56.70
46139;DHT22;32398;49.112;8.598;2022-08-21T02:02:18;21.40;56.70
46139;DHT22;32398;49.112;8.598;2022-08-21T02:04:44;21.40;56.70
46139;DHT22;32398;49.112;8.598;2022-08-21T02:07:11;21.40;56.80
46139;DHT22;32398;49.112;8.598;2022-08-21T02:09:37;21.30;56.80
46139;DHT22;32398;49.112;8.598;2022-08-21T02:12:06;21.30;56.90
46139;DHT22;32398;49.112;8.598;2022-08-21T02:14:34;21.30;57.10
46139;DHT22;32398;49.112;8.598;2022-08-21T02:17:01;21.30;57.10
46139;DHT22;32398;49.112;8.598;2022-08-21T02:19:28;21.20;57.10
46139;DHT22;32398;49.112;8.598;2022-08-21T02:21:54;21.20;57.10
46139;DHT22;32398;49.112;8.598;2022-08-21T02:24:21;21.20;57.20
46139;DHT22;32398;49.112;8.598;2022-08-21T02:26:47;21.10;57.20
46139;DHT22;32398;49.112;8.598;2022-08-21T02:29:14;21.10;57.30
46139;DHT22;32398;49.112;8.598;2022-08-21T02:31:42;21.10;57.30
46139;DHT22;32398;49.112;8.598;2022-08-21T02:34:08;21.10;57.50
46139;DHT22;32398;49.112;8.598;2022-08-21T02:36:35;21.10;57.50
46139;DHT22;32398;49.112;8.598;2022-08-21T02:39:02;21.00;57.60
46139;DHT22;32398;49.112;8.598;2022-08-21T02:41:29;21.00;57.70
46139;DHT22;32398;49.112;8.598;2022-08-21T02:43:55;21.00;57.70
46139;DHT22;32398;49.112;8.598;2022-08-21T02:46:22;20.90;57.80
46139;DHT22;32398;49.112;8.598;2022-08-21T02:48:50;20.90;57.80
46139;DHT22;32398;49.112;8.598;2022-08-21T02:51:18;20.90;57.90
46139;DHT22;32398;49.112;8.598;2022-08-21T02:53:45;20.90;58.00
46139;DHT22;32398;49.112;8.598;2022-08-21T02:56:13;20.90;58.10
46139;DHT22;32398;49.112;8.598;2022-08-21T02:58:41;20.80;58.00
46139;DHT22;32398;49.112;8.598;2022-08-21T03:01:09;20.80;58.00
46139;DHT22;32398;49.112;8.598;2022-08-21T03:03:36;20.80;58.10
46139;DHT22;32398;49.112;8.598;2022-08-21T03:06:05;20.80;58.20
46139;DHT22;32398;49.112;8.598;2022-08-21T03:08:33;20.80;58.30
46139;DHT22;32398;49.112;8.598;2022-08-21T03:10:59;20.70;58.30
46139;DHT22;32398;49.112;8.598;2022-08-21T03:13:26;20.60;58.30
46139;DHT22;32398;49.112;8.598;2022-08-21T03:15:53;20.60;58.40
46139;DHT22;32398;49.112;8.598;2022-08-21T03:18:19;20.60;58.60
46139;DHT22;32398;49.112;8.598;2022-08-21T03:20:46;20.60;58.60
46139;DHT22;32398;49.112;8.598;2022-08-21T03:23:15;20.60;58.60
46139;DHT22;32398;49.112;8.598;2022-08-21T03:25:42;20.50;58.70
46139;DHT22;32398;49.112;8.598;2022-08-21T03:28:10;20.50;58.70
46139;DHT22;32398;49.112;8.598;2022-08-21T03:30:36;20.50;58.70
46139;DHT22;32398;49.112;8.598;2022-08-21T03:33:03;20.50;58.90
46139;DHT22;32398;49.112;8.598;2022-08-21T03:35:30;20.40;58.90
46139;DHT22;32398;49.112;8.598;2022-08-21T03:37:56;20.40;59.00
46139;DHT22;32398;49.112;8.598;2022-08-21T03:40:24;20.40;59.00
46139;DHT22;32398;49.112;8.598;2022-08-21T03:42:51;20.40;59.00
46139;DHT22;32398;49.112;8.598;2022-08-21T03:45:18;20.40;59.00
46139;DHT22;32398;49.112;8.598;2022-08-21T03:47:52;20.30;59.10
46139;DHT22;32398;49.112;8.598;2022-08-21T03:50:19;20.30;59.20
46139;DHT22;32398;49.112;8.598;2022-08-21T03:52:45;20.20;59.20
46139;DHT22;32398;49.112;8.598;2022-08-21T03:55:12;20.20;59.30
46139;DHT22;32398;49.112;8.598;2022-08-21T03:57:40;20.20;59.30
46139;DHT22;32398;49.112;8.598;2022-08-21T04:00:07;20.20;59.30
46139;DHT22;32398;49.112;8.598;2022-08-21T04:02:35;20.20;59.40
46139;DHT22;32398;49.112;8.598;2022-08-21T04:05:02;20.10;59.20
46139;DHT22;32398;49.112;8.598;2022-08-21T04:07:28;20.10;59.40
46139;DHT22;32398;49.112;8.598;2022-08-21T04:09:55;20.10;59.40
46139;DHT22;32398;49.112;8.598;2022-08-21T04:12:22;20.10;59.50
46139;DHT22;32398;49.112;8.598;2022-08-21T04:14:50;20.00;59.50
46139;DHT22;32398;49.112;8.598;2022-08-21T04:17:17;20.00;59.60
46139;DHT22;32398;49.112;8.598;2022-08-21T04:19:44;20.00;59.60
46139;DHT22;32398;49.112;8.598;2022-08-21T04:22:11;20.00;59.70
46139;DHT22;32398;49.112;8.598;2022-08-21T04:24:37;20.00;59.70
46139;DHT22;32398;49.112;8.598;2022-08-21T04:27:04;19.90;59.90
46139;DHT22;32398;49.112;8.598;2022-08-21T04:29:30;19.90;59.90
46139;DHT22;32398;49.112;8.598;2022-08-21T04:31:58;19.80;59.90
46139;DHT22;32398;49.112;8.598;2022-08-21T04:34:25;19.80;59.90
46139;DHT22;32398;49.112;8.598;2022-08-21T04:36:51;19.90;60.00
46139;DHT22;32398;49.112;8.598;2022-08-21T04:39:18;19.90;60.20
46139;DHT22;32398;49.112;8.598;2022-08-21T04:41:44;19.80;60.20
46139;DHT22;32398;49.112;8.598;2022-08-21T04:44:11;19.80;60.30
46139;DHT22;32398;49.112;8.598;2022-08-21T04:46:37;19.80;60.30
46139;DHT22;32398;49.112;8.598;2022-08-21T04:49:05;19.70;60.40
46139;DHT22;32398;49.112;8.598;2022-08-21T04:51:33;19.70;60.20
46139;DHT22;32398;49.112;8.598;2022-08-21T04:54:02;19.70;60.30
46139;DHT22;32398;49.112;8.598;2022-08-21T04:56:30;19.70;60.50
46139;DHT22;32398;49.112;8.598;2022-08-21T04:58:58;19.60;60.50
46139;DHT22;32398;49.112;8.598;2022-08-21T05:01:27;19.60;60.70
46139;DHT22;32398;49.112;8.598;2022-08-21T05:03:55;19.60;60.80
46139;DHT22;32398;49.112;8.598;2022-08-21T05:06:23;19.60;60.70
46139;DHT22;32398;49.112;8.598;2022-08-21T05:08:51;19.60;60.70
46139;DHT22;32398;49.112;8.598;2022-08-21T05:11:19;19.60;60.80
46139;DHT22;32398;49.112;8.598;2022-08-21T05:13:47;19.50;60.80
46139;DHT22;32398;49.112;8.598;2022-08-21T05:16:14;19.50;60.80
46139;DHT22;32398;49.112;8.598;2022-08-21T05:18:41;19.50;60.90
46139;DHT22;32398;49.112;8.598;2022-08-21T05:21:07;19.50;61.00
46139;DHT22;32398;49.112;8.598;2022-08-21T05:23:36;19.40;61.00
46139;DHT22;32398;49.112;8.598;2022-08-21T05:26:02;19.40;61.00
46139;DHT22;32398;49.112;8.598;2022-08-21T05:28:29;19.40;61.10
46139;DHT22;32398;49.112;8.598;2022-08-21T05:30:56;19.40;61.10
46139;DHT22;32398;49.112;8.598;2022-08-21T05:33:22;19.40;61.30
46139;DHT22;32398;49.112;8.598;2022-08-21T05:35:49;19.40;61.30
46139;DHT22;32398;49.112;8.598;2022-08-21T05:38:15;19.30;61.50
46139;DHT22;32398;49.112;8.598;2022-08-21T05:40:43;19.30;61.40
46139;DHT22;32398;49.112;8.598;2022-08-21T05:43:10;19.30;61.30
46139;DHT22;32398;49.112;8.598;2022-08-21T05:45:37;19.30;61.50
46139;DHT22;32398;49.112;8.598;2022-08-21T05:48:06;19.30;61.60
46139;DHT22;32398;49.112;8.598;2022-08-21T05:50:34;19.30;61.60
46139;DHT22;32398;49.112;8.598;2022-08-21T05:53:02;19.30;61.50
46139;DHT22;32398;49.112;8.598;2022-08-21T05:55:29;19.20;61.50
46139;DHT22;32398;49.112;8.598;2022-08-21T05:57:57;19.20;61.50
46139;DHT22;32398;49.112;8.598;2022-08-21T06:00:24;19.20;61.80
46139;DHT22;32398;49.112;8.598;2022-08-21T06:02:50;19.20;61.90
46139;DHT22;32398;49.112;8.598;2022-08-21T06:05:17;19.20;61.80
46139;DHT22;32398;49.112;8.598;2022-08-21T06:07:44;19.20;62.00
46139;DHT22;32398;49.112;8.598;2022-08-21T06:10:10;19.20;61.90
46139;DHT22;32398;49.112;8.598;2022-08-21T06:12:37;19.10;61.90
46139;DHT22;32398;49.112;8.598;2022-08-21T06:15:05;19.10;62.10
46139;DHT22;32398;49.112;8.598;2022-08-21T06:17:32;19.10;62.20
46139;DHT22;32398;49.112;8.598;2022-08-21T06:19:58;19.10;62.20
46139;DHT22;32398;49.112;8.598;2022-08-21T06:22:25;19.10;62.20
46139;DHT22;32398;49.112;8.598;2022-08-21T06:24:52;19.10;62.10
46139;DHT22;32398;49.112;8.598;2022-08-21T06:27:18;19.10;62.10
46139;DHT22;32398;49.112;8.598;2022-08-21T06:29:45;19.10;62.80
46139;DHT22;32398;49.112;8.598;2022-08-21T06:32:13;19.10;62.00
46139;DHT22;32398;49.112;8.598;2022-08-21T06:34:40;19.10;61.90
46139;DHT22;32398;49.112;8.598;2022-08-21T06:37:07;19.10;62.00
46139;DHT22;32398;49.112;8.598;2022-08-21T06:39:34;19.10;62.10
46139;DHT22;32398;49.112;8.598;2022-08-21T06:42:00;19.00;62.10
46139;DHT22;32398;49.112;8.598;2022-08-21T06:44:27;19.10;62.20
46139;DHT22;32398;49.112;8.598;2022-08-21T06:46:54;19.10;62.00
46139;DHT22;32398;49.112;8.598;2022-08-21T06:49:22;19.00;61.90
46139;DHT22;32398;49.112;8.598;2022-08-21T06:51:48;19.00;61.90
46139;DHT22;32398;49.112;8.598;2022-08-21T06:54:15;19.00;61.70
46139;DHT22;32398;49.112;8.598;2022-08-21T06:56:42;19.10;61.80
46139;DHT22;32398;49.112;8.598;2022-08-21T06:59:08;19.00;61.60
46139;DHT22;32398;49.112;8.598;2022-08-21T07:01:35;19.00;61.60
46139;DHT22;32398;49.112;8.598;2022-08-21T07:04:01;19.10;61.50
46139;DHT22;32398;49.112;8.598;2022-08-21T07:06:30;19.10;61.40
46139;DHT22;32398;49.112;8.598;2022-08-21T07:08:56;19.10;61.30
46139;DHT22;32398;49.112;8.598;2022-08-21T07:11:23;19.00;61.20
46139;DHT22;32398;49.112;8.598;2022-08-21T07:13:50;19.00;61.20
46139;DHT22;32398;49.112;8.598;2022-08-21T07:16:17;19.10;61.10
46139;DHT22;32398;49.112;8.598;2022-08-21T07:18:44;19.10;61.00
46139;DHT22;32398;49.112;8.598;2022-08-21T07:21:11;19.10;60.80
46139;DHT22;32398;49.112;8.598;2022-08-21T07:23:39;19.10;60.70
46139;DHT22;32398;49.112;8.598;2022-08-21T07:26:06;19.10;60.60
46139;DHT22;32398;49.112;8.598;2022-08-21T07:28:33;19.10;60.50
46139;DHT22;32398;49.112;8.598;2022-08-21T07:31:00;19.10;60.50
46139;DHT22;32398;49.112;8.598;2022-08-21T07:33:27;19.20;60.80
46139;DHT22;32398;49.112;8.598;2022-08-21T07:35:54;19.20;60.30
46139;DHT22;32398;49.112;8.598;2022-08-21T07:38:21;19.20;60.30
46139;DHT22;32398;49.112;8.598;2022-08-21T07:40:49;19.20;60.10
46139;DHT22;32398;49.112;8.598;2022-08-21T07:43:17;19.20;60.00
46139;DHT22;32398;49.112;8.598;2022-08-21T07:45:43;19.20;60.00
46139;DHT22;32398;49.112;8.598;2022-08-21T07:48:10;19.30;60.00
46139;DHT22;32398;49.112;8.598;2022-08-21T07:50:37;19.30;59.90
46139;DHT22;32398;49.112;8.598;2022-08-21T07:53:04;19.30;59.80
46139;DHT22;32398;49.112;8.598;2022-08-21T07:55:30;19.30;59.80
46139;DHT22;32398;49.112;8.598;2022-08-21T07:57:58;19.40;59.80
46139;DHT22;32398;49.112;8.598;2022-08-21T08:00:26;19.40;59.60
46139;DHT22;32398;49.112;8.598;2022-08-21T08:02:53;19.40;59.50
46139;DHT22;32398;49.112;8.598;2022-08-21T08:05:20;19.40;59.50
46139;DHT22;32398;49.112;8.598;2022-08-21T08:07:47;19.40;59.40
46139;DHT22;32398;49.112;8.598;2022-08-21T08:10:14;19.40;59.30
46139;DHT22;32398;49.112;8.598;2022-08-21T08:12:41;19.50;59.20
46139;DHT22;32398;49.112;8.598;2022-08-21T08:15:12;19.50;59.10
46139;DHT22;32398;49.112;8.598;2022-08-21T08:17:39;19.50;59.00
46139;DHT22;32398;49.112;8.598;2022-08-21T08:20:06;19.50;58.80
46139;DHT22;32398;49.112;8.598;2022-08-21T08:22:33;19.50;58.70
46139;DHT22;32398;49.112;8.598;2022-08-21T08:25:00;19.60;58.70
46139;DHT22;32398;49.112;8.598;2022-08-21T08:27:27;19.60;58.60
46139;DHT22;32398;49.112;8.598;2022-08-21T08:29:53;19.70;58.60
46139;DHT22;32398;49.112;8.598;2022-08-21T08:32:22;19.70;58.60
46139;DHT22;32398;49.112;8.598;2022-08-21T08:34:48;19.70;58.50
46139;DHT22;32398;49.112;8.598;2022-08-21T08:37:17;19.80;58.50
46139;DHT22;32398;49.112;8.598;2022-08-21T08:39:43;19.80;58.50
46139;DHT22;32398;49.112;8.598;2022-08-21T08:42:11;19.80;58.40
46139;DHT22;32398;49.112;8.598;2022-08-21T08:44:38;19.90;58.30
46139;DHT22;32398;49.112;8.598;2022-08-21T08:47:05;19.90;58.30
46139;DHT22;32398;49.112;8.598;2022-08-21T08:49:34;20.00;58.30
46139;DHT22;32398;49.112;8.598;2022-08-21T08:52:03;20.00;58.10
46139;DHT22;32398;49.112;8.598;2022-08-21T08:54:33;20.10;58.00
46139;DHT22;32398;49.112;8.598;2022-08-21T08:57:02;20.10;57.90
46139;DHT22;32398;49.112;8.598;2022-08-21T08:59:31;20.10;57.80
46139;DHT22;32398;49.112;8.598;2022-08-21T09:02:00;20.20;57.70
46139;DHT22;32398;49.112;8.598;2022-08-21T09:04:26;20.20;57.60
46139;DHT22;32398;49.112;8.598;2022-08-21T09:07:01;20.30;57.50
46139;DHT22;32398;49.112;8.598;2022-08-21T09:09:34;20.30;57.30
46139;DHT22;32398;49.112;8.598;2022-08-21T09:12:06;20.40;57.30
46139;DHT22;32398;49.112;8.598;2022-08-21T09:14:50;20.50;57.20
46139;DHT22;32398;49.112;8.598;2022-08-21T09:17:24;20.50;57.10
46139;DHT22;32398;49.112;8.598;2022-08-21T09:19:58;20.60;56.70
46139;DHT22;32398;49.112;8.598;2022-08-21T09:22:30;20.70;56.60
46139;DHT22;32398;49.112;8.598;2022-08-21T09:25:02;20.70;56.30
46139;DHT22;32398;49.112;8.598;2022-08-21T09:27:33;20.80;56.30
46139;DHT22;32398;49.112;8.598;2022-08-21T09:30:00;20.90;56.10
46139;DHT22;32398;49.112;8.598;2022-08-21T09:32:28;21.00;55.90
46139;DHT22;32398;49.112;8.598;2022-08-21T09:34:56;21.00;55.80
46139;DHT22;32398;49.112;8.598;2022-08-21T09:37:24;21.10;55.50
46139;DHT22;32398;49.112;8.598;2022-08-21T09:39:52;21.10;55.50
46139;DHT22;32398;49.112;8.598;2022-08-21T09:42:22;21.20;55.30
46139;DHT22;32398;49.112;8.598;2022-08-21T09:45:09;21.30;55.20
46139;DHT22;32398;49.112;8.598;2022-08-21T09:47:36;21.30;55.10
46139;DHT22;32398;49.112;8.598;2022-08-21T09:50:10;21.40;55.00
46139;DHT22;32398;49.112;8.598;2022-08-21T09:52:42;21.40;54.80
46139;DHT22;32398;49.112;8.598;2022-08-21T09:55:13;21.50;54.60
46139;DHT22;32398;49.112;8.598;2022-08-21T09:58:01;21.60;54.40
46139;DHT22;32398;49.112;8.598;2022-08-21T10:00:28;21.60;54.20
46139;DHT22;32398;49.112;8.598;2022-08-21T10:02:56;21.70;54.10
46139;DHT22;32398;49.112;8.598;2022-08-21T10:05:33;21.80;54.00
46139;DHT22;32398;49.112;8.598;2022-08-21T10:07:59;21.90;53.90
46139;DHT22;32398;49.112;8.598;2022-08-21T10:10:28;21.90;53.80
46139;DHT22;32398;49.112;8.598;2022-08-21T10:12:57;22.00;53.60
46139;DHT22;32398;49.112;8.598;2022-08-21T10:15:28;22.10;53.50
46139;DHT22;32398;49.112;8.598;2022-08-21T10:18:02;22.10;53.20
46139;DHT22;32398;49.112;8.598;2022-08-21T10:20:32;22.20;52.90
46139;DHT22;32398;49.112;8.598;2022-08-21T10:23:06;22.30;52.50
46139;DHT22;32398;49.112;8.598;2022-08-21T10:25:37;22.30;52.40
46139;DHT22;32398;49.112;8.598;2022-08-21T10:28:07;22.40;52.50
46139;DHT22;32398;49.112;8.598;2022-08-21T10:30:38;22.50;52.90
46139;DHT22;32398;49.112;8.598;2022-08-21T10:35:53;22.70;52.10
46139;DHT22;32398;49.112;8.598;2022-08-21T10:41:18;22.80;51.60
46139;DHT22;32398;49.112;8.598;2022-08-21T10:43:49;22.90;51.60
46139;DHT22;32398;49.112;8.598;2022-08-21T10:46:18;22.90;51.40
46139;DHT22;32398;49.112;8.598;2022-08-21T10:48:47;23.00;51.30
46139;DHT22;32398;49.112;8.598;2022-08-21T10:51:16;23.10;51.10
46139;DHT22;32398;49.112;8.598;2022-08-21T10:53:48;23.20;51.10
46139;DHT22;32398;49.112;8.598;2022-08-21T10:56:18;23.30;51.00
46139;DHT22;32398;49.112;8.598;2022-08-21T10:58:47;23.30;50.70
46139;DHT22;32398;49.112;8.598;2022-08-21T11:01:19;23.40;50.50
46139;DHT22;32398;49.112;8.598;2022-08-21T11:03:50;23.50;50.40
46139;DHT22;32398;49.112;8.598;2022-08-21T11:06:19;23.50;50.10
46139;DHT22;32398;49.112;8.598;2022-08-21T11:08:48;23.60;50.00
46139;DHT22;32398;49.112;8.598;2022-08-21T11:11:20;23.70;49.80
46139;DHT22;32398;49.112;8.598;2022-08-21T11:13:49;23.80;50.20
46139;DHT22;32398;49.112;8.598;2022-08-21T11:16:23;23.80;49.70
46139;DHT22;32398;49.112;8.598;2022-08-21T11:18:53;23.80;49.50
46139;DHT22;32398;49.112;8.598;2022-08-21T11:21:32;23.90;49.60
46139;DHT22;32398;49.112;8.598;2022-08-21T11:24:00;24.00;49.50
46139;DHT22;32398;49.112;8.598;2022-08-21T11:26:32;24.00;49.30
46139;DHT22;32398;49.112;8.598;2022-08-21T11:29:02;24.10;49.60
46139;DHT22;32398;49.112;8.598;2022-08-21T11:31:34;24.10;48.90
46139;DHT22;32398;49.112;8.598;2022-08-21T11:34:07;24.20;48.50
46139;DHT22;32398;49.112;8.598;2022-08-21T11:36:36;24.20;48.40
46139;DHT22;32398;49.112;8.598;2022-08-21T11:39:07;24.30;48.10
46139;DHT22;32398;49.112;8.598;2022-08-21T11:41:38;24.40;48.00
46139;DHT22;32398;49.112;8.598;2022-08-21T11:44:09;24.50;47.90
46139;DHT22;32398;49.112;8.598;2022-08-21T11:46:38;24.60;47.70
46139;DHT22;32398;49.112;8.598;2022-08-21T11:49:14;24.70;47.60
46139;DHT22;32398;49.112;8.598;2022-08-21T11:51:44;24.70;47.20
46139;DHT22;32398;49.112;8.598;2022-08-21T11:54:15;24.80;47.20
46139;DHT22;32398;49.112;8.598;2022-08-21T11:56:45;24.90;47.10
46139;DHT22;32398;49.112;8.598;2022-08-21T11:59:13;24.90;47.80
46139;DHT22;32398;49.112;8.598;2022-08-21T12:01:45;25.00;47.00
46139;DHT22;32398;49.112;8.598;2022-08-21T12:04:17;25.10;46.80
46139;DHT22;32398;49.112;8.598;2022-08-21T12:06:44;25.10;46.60
46139;DHT22;32398;49.112;8.598;2022-08-21T12:09:26;25.20;46.40
46139;DHT22;32398;49.112;8.598;2022-08-21T12:12:01;25.30;46.30
46139;DHT22;32398;49.112;8.598;2022-08-21T12:14:35;25.30;46.20
46139;DHT22;32398;49.112;8.598;2022-08-21T12:17:03;25.40;45.80
46139;DHT22;32398;49.112;8.598;2022-08-21T12:19:31;25.50;45.80
46139;DHT22;32398;49.112;8.598;2022-08-21T12:21:58;25.70;45.10
46139;DHT22;32398;49.112;8.598;2022-08-21T12:24:32;25.90;44.80
46139;DHT22;32398;49.112;8.598;2022-08-21T12:27:12;26.00;44.70
46139;DHT22;32398;49.112;8.598;2022-08-21T12:29:44;26.00;45.10
46139;DHT22;32398;49.112;8.598;2022-08-21T12:32:20;26.10;45.30
46139;DHT22;32398;49.112;8.598;2022-08-21T12:34:49;26.10;44.50
46139;DHT22;32398;49.112;8.598;2022-08-21T12:37:18;26.20;44.50
46139;DHT22;32398;49.112;8.598;2022-08-21T12:39:47;26.10;44.60
46139;DHT22;32398;49.112;8.598;2022-08-21T12:42:17;26.20;43.90
46139;DHT22;32398;49.112;8.598;2022-08-21T12:44:45;26.20;44.30
46139;DHT22;32398;49.112;8.598;2022-08-21T12:47:14;26.20;44.40
46139;DHT22;32398;49.112;8.598;2022-08-21T12:49:43;26.20;44.80
46139;DHT22;32398;49.112;8.598;2022-08-21T12:52:11;26.30;44.60
46139;DHT22;32398;49.112;8.598;2022-08-21T12:54:40;26.30;44.80
46139;DHT22;32398;49.112;8.598;2022-08-21T12:57:07;26.40;44.00
46139;DHT22;32398;49.112;8.598;2022-08-21T12:59:38;26.50;43.80
46139;DHT22;32398;49.112;8.598;2022-08-21T13:02:09;26.50;44.30
46139;DHT22;32398;49.112;8.598;2022-08-21T13:04:38;26.50;44.10
46139;DHT22;32398;49.112;8.598;2022-08-21T13:07:05;26.60;43.90
46139;DHT22;32398;49.112;8.598;2022-08-21T13:09:33;26.60;44.60
46139;DHT22;32398;49.112;8.598;2022-08-21T13:11:59;26.70;44.10
46139;DHT22;32398;49.112;8.598;2022-08-21T13:14:28;26.70;43.90
46139;DHT22;32398;49.112;8.598;2022-08-21T13:16:57;26.70;44.40
46139;DHT22;32398;49.112;8.598;2022-08-21T13:19:24;26.80;45.70
46139;DHT22;32398;49.112;8.598;2022-08-21T13:21:51;26.80;43.70
46139;DHT22;32398;49.112;8.598;2022-08-21T13:24:18;26.90;43.60
46139;DHT22;32398;49.112;8.598;2022-08-21T13:26:46;26.90;43.70
46139;DHT22;32398;49.112;8.598;2022-08-21T13:29:13;27.00;43.40
46139;DHT22;32398;49.112;8.598;2022-08-21T13:31:40;27.00;43.30
46139;DHT22;32398;49.112;8.598;2022-08-21T13:34:09;27.10;42.10
46139;DHT22;32398;49.112;8.598;2022-08-21T13:36:37;27.10;42.30
46139;DHT22;32398;49.112;8.598;2022-08-21T13:39:05;27.20;42.80
46139;DHT22;32398;49.112;8.598;2022-08-21T13:41:34;27.20;43.40
46139;DHT22;32398;49.112;8.598;2022-08-21T13:44:03;27.30;43.10
46139;DHT22;32398;49.112;8.598;2022-08-21T13:46:32;27.30;42.40
46139;DHT22;32398;49.112;8.598;2022-08-21T13:49:00;27.40;42.80
46139;DHT22;32398;49.112;8.598;2022-08-21T13:51:29;27.40;42.40
46139;DHT22;32398;49.112;8.598;2022-08-21T13:53:56;27.50;41.30
46139;DHT22;32398;49.112;8.598;2022-08-21T13:56:25;27.50;40.40
46139;DHT22;32398;49.112;8.598;2022-08-21T13:58:53;27.50;42.00
46139;DHT22;32398;49.112;8.598;2022-08-21T14:01:21;27.60;41.20
46139;DHT22;32398;49.112;8.598;2022-08-21T14:03:48;27.70;40.60
46139;DHT22;32398;49.112;8.598;2022-08-21T14:06:16;27.70;40.20
46139;DHT22;32398;49.112;8.598;2022-08-21T14:08:48;27.80;40.90
46139;DHT22;32398;49.112;8.598;2022-08-21T14:11:15;27.90;41.90
46139;DHT22;32398;49.112;8.598;2022-08-21T14:13:43;27.90;41.30
46139;DHT22;32398;49.112;8.598;2022-08-21T14:16:12;27.90;40.70
46139;DHT22;32398;49.112;8.598;2022-08-21T14:18:46;28.00;41.50
46139;DHT22;32398;49.112;8.598;2022-08-21T14:21:13;28.00;40.50
46139;DHT22;32398;49.112;8.598;2022-08-21T14:23:40;28.10;39.80
46139;DHT22;32398;49.112;8.598;2022-08-21T14:26:09;28.10;39.00
46139;DHT22;32398;49.112;8.598;2022-08-21T14:28:38;28.20;39.00
46139;DHT22;32398;49.112;8.598;2022-08-21T14:31:12;28.20;40.00
46139;DHT22;32398;49.112;8.598;2022-08-21T14:33:39;28.30;39.30
46139;DHT22;32398;49.112;8.598;2022-08-21T14:36:06;28.40;39.60
46139;DHT22;32398;49.112;8.598;2022-08-21T14:38:34;28.40;40.10
46139;DHT22;32398;49.112;8.598;2022-08-21T14:41:03;28.40;38.00
46139;DHT22;32398;49.112;8.598;2022-08-21T14:43:31;28.50;38.80
46139;DHT22;32398;49.112;8.598;2022-08-21T14:45:58;28.60;39.70
46139;DHT22;32398;49.112;8.598;2022-08-21T14:48:26;28.60;41.10
46139;DHT22;32398;49.112;8.598;2022-08-21T14:50:53;28.60;37.90
46139;DHT22;32398;49.112;8.598;2022-08-21T14:53:19;28.70;37.60
46139;DHT22;32398;49.112;8.598;2022-08-21T14:55:46;28.70;38.70
46139;DHT22;32398;49.112;8.598;2022-08-21T14:58:32;28.80;39.50
46139;DHT22;32398;49.112;8.598;2022-08-21T15:00:59;28.80;39.10
46139;DHT22;32398;49.112;8.598;2022-08-21T15:03:29;28.90;38.00
46139;DHT22;32398;49.112;8.598;2022-08-21T15:05:55;28.90;38.10
46139;DHT22;32398;49.112;8.598;2022-08-21T15:08:22;28.90;37.30
46139;DHT22;32398;49.112;8.598;2022-08-21T15:10:48;28.90;37.20
46139;DHT22;32398;49.112;8.598;2022-08-21T15:13:15;29.00;38.70
46139;DHT22;32398;49.112;8.598;2022-08-21T15:15:44;29.00;37.70
46139;DHT22;32398;49.112;8.598;2022-08-21T15:18:11;29.10;37.20
46139;DHT22;32398;49.112;8.598;2022-08-21T15:20:38;29.10;38.30
46139;DHT22;32398;49.112;8.598;2022-08-21T15:23:05;29.10;40.60
46139;DHT22;32398;49.112;8.598;2022-08-21T15:25:32;29.10;39.00
46139;DHT22;32398;49.112;8.598;2022-08-21T15:27:59;29.10;38.70
46139;DHT22;32398;49.112;8.598;2022-08-21T15:30:26;29.10;40.10
46139;DHT22;32398;49.112;8.598;2022-08-21T15:32:54;29.10;39.40
46139;DHT22;32398;49.112;8.598;2022-08-21T15:35:21;29.10;39.10
46139;DHT22;32398;49.112;8.598;2022-08-21T15:37:47;29.10;40.00
46139;DHT22;32398;49.112;8.598;2022-08-21T15:40:14;29.10;40.50
46139;DHT22;32398;49.112;8.598;2022-08-21T15:42:41;29.10;40.70